sensor_id;sensor_type;location;lat;lon;timestamp;P1;durP1;ratioP1;P2;durP2;ratioP2
7406;SDS011;3745;56.964;24.128;2023-07-09T00:01:46;11.88;;;7.05;;
7406;SDS011;3745;56.964;24.128;2023-07-09T00:04:12;6.55;;;5.95;;
7406;SDS011;3745;56.964;24.128;2023-07-09T00:06:41;7.47;;;5.57;;
7406;SDS011;3745;56.964;24.128;2023-07-09T00:09:14;6.93;;;5.55;;
7406;SDS011;3745;56.964;24.128;2023-07-09T00:11:42;6.97;;;5.45;;
7406;SDS011;3745;56.964;24.128;2023-07-09T00:14:12;5.53;;;5.15;;
7406;SDS011;3745;56.964;24.128;2023-07-09T00:16:40;6.20;;;5.65;;
7406;SDS011;3745;56.964;24.128;2023-07-09T00:19:15;6.18;;;5.40;;
7406;SDS011;3745;56.964;24.128;2023-07-09T00:21:45;10.80;;;7.22;;
7406;SDS011;3745;56.964;24.128;2023-07-09T00:24:14;14.02;;;8.50;;
7406;SDS011;3745;56.964;24.128;2023-07-09T00:26:40;15.73;;;9.27;;
7406;SDS011;3745;56.964;24.128;2023-07-09T00:29:10;15.57;;;9.10;;
7406;SDS011;3745;56.964;24.128;2023-07-09T00:31:36;10.18;;;7.90;;
7406;SDS011;3745;56.964;24.128;2023-07-09T00:34:09;10.02;;;6.88;;
7406;SDS011;3745;56.964;24.128;2023-07-09T00:36:41;7.85;;;6.28;;
7406;SDS011;3745;56.964;24.128;2023-07-09T00:39:17;6.40;;;5.75;;
7406;SDS011;3745;56.964;24.128;2023-07-09T00:41:47;6.10;;;5.43;;
7406;SDS011;3745;56.964;24.128;2023-07-09T00:47:12;5.97;;;5.47;;
7406;SDS011;3745;56.964;24.128;2023-07-09T00:52:56;6.45;;;5.82;;
7406;SDS011;3745;56.964;24.128;2023-07-09T00:55:52;5.70;;;5.20;;
7406;SDS011;3745;56.964;24.128;2023-07-09T00:58:22;6.72;;;6.22;;
7406;SDS011;3745;56.964;24.128;2023-07-09T01:00:54;7.22;;;5.72;;
7406;SDS011;3745;56.964;24.128;2023-07-09T01:03:25;6.18;;;5.57;;
7406;SDS011;3745;56.964;24.128;2023-07-09T01:05:58;6.93;;;5.80;;
7406;SDS011;3745;56.964;24.128;2023-07-09T01:08:24;9.25;;;5.80;;
7406;SDS011;3745;56.964;24.128;2023-07-09T01:10:52;7.15;;;6.40;;
7406;SDS011;3745;56.964;24.128;2023-07-09T01:13:18;7.72;;;6.68;;
7406;SDS011;3745;56.964;24.128;2023-07-09T01:15:45;8.90;;;6.07;;
7406;SDS011;3745;56.964;24.128;2023-07-09T01:18:12;7.43;;;6.00;;
7406;SDS011;3745;56.964;24.128;2023-07-09T01:20:38;6.97;;;6.28;;
7406;SDS011;3745;56.964;24.128;2023-07-09T01:23:04;6.40;;;5.65;;
7406;SDS011;3745;56.964;24.128;2023-07-09T01:25:31;6.20;;;5.60;;
7406;SDS011;3745;56.964;24.128;2023-07-09T01:27:57;6.55;;;5.82;;
7406;SDS011;3745;56.964;24.128;2023-07-09T01:30:30;8.07;;;5.97;;
7406;SDS011;3745;56.964;24.128;2023-07-09T01:33:00;6.90;;;6.20;;
7406;SDS011;3745;56.964;24.128;2023-07-09T01:35:26;6.82;;;6.22;;
7406;SDS011;3745;56.964;24.128;2023-07-09T01:37:54;7.95;;;6.80;;
7406;SDS011;3745;56.964;24.128;2023-07-09T01:40:21;6.68;;;6.10;;
7406;SDS011;3745;56.964;24.128;2023-07-09T01:42:49;6.53;;;6.03;;
7406;SDS011;3745;56.964;24.128;2023-07-09T01:45:16;7.15;;;6.55;;
7406;SDS011;3745;56.964;24.128;2023-07-09T01:47:42;7.78;;;7.13;;
7406;SDS011;3745;56.964;24.128;2023-07-09T01:50:09;7.80;;;7.00;;
7406;SDS011;3745;56.964;24.128;2023-07-09T01:52:36;9.18;;;6.47;;
7406;SDS011;3745;56.964;24.128;2023-07-09T01:55:03;6.97;;;6.38;;
7406;SDS011;3745;56.964;24.128;2023-07-09T01:57:30;7.32;;;6.60;;
7406;SDS011;3745;56.964;24.128;2023-07-09T02:00:04;6.93;;;6.32;;
7406;SDS011;3745;56.964;24.128;2023-07-09T02:02:36;7.90;;;6.70;;
7406;SDS011;3745;56.964;24.128;2023-07-09T02:05:04;8.27;;;7.25;;
7406;SDS011;3745;56.964;24.128;2023-07-09T02:07:30;7.90;;;6.72;;
7406;SDS011;3745;56.964;24.128;2023-07-09T02:09:56;7.82;;;7.10;;
7406;SDS011;3745;56.964;24.128;2023-07-09T02:12:23;7.85;;;7.18;;
7406;SDS011;3745;56.964;24.128;2023-07-09T02:14:49;8.18;;;7.38;;
7406;SDS011;3745;56.964;24.128;2023-07-09T02:17:15;10.85;;;7.45;;
7406;SDS011;3745;56.964;24.128;2023-07-09T02:19:41;8.32;;;6.40;;
7406;SDS011;3745;56.964;24.128;2023-07-09T02:22:08;7.78;;;7.07;;
7406;SDS011;3745;56.964;24.128;2023-07-09T02:24:34;7.45;;;6.75;;
7406;SDS011;3745;56.964;24.128;2023-07-09T02:27:01;7.65;;;6.97;;
7406;SDS011;3745;56.964;24.128;2023-07-09T02:29:29;8.25;;;7.45;;
7406;SDS011;3745;56.964;24.128;2023-07-09T02:31:56;7.40;;;6.80;;
7406;SDS011;3745;56.964;24.128;2023-07-09T02:34:23;7.95;;;7.32;;
7406;SDS011;3745;56.964;24.128;2023-07-09T02:36:54;9.90;;;7.57;;
7406;SDS011;3745;56.964;24.128;2023-07-09T02:39:21;8.10;;;7.30;;
7406;SDS011;3745;56.964;24.128;2023-07-09T02:41:48;10.77;;;8.43;;
7406;SDS011;3745;56.964;24.128;2023-07-09T02:44:14;8.73;;;7.80;;
7406;SDS011;3745;56.964;24.128;2023-07-09T02:46:40;9.43;;;7.93;;
7406;SDS011;3745;56.964;24.128;2023-07-09T02:49:06;7.63;;;6.75;;
7406;SDS011;3745;56.964;24.128;2023-07-09T02:51:34;13.70;;;7.75;;
7406;SDS011;3745;56.964;24.128;2023-07-09T02:54:01;9.38;;;7.43;;
7406;SDS011;3745;56.964;24.128;2023-07-09T02:56:27;7.53;;;6.65;;
7406;SDS011;3745;56.964;24.128;2023-07-09T02:58:54;7.93;;;7.10;;
7406;SDS011;3745;56.964;24.128;2023-07-09T03:01:19;8.10;;;7.32;;
7406;SDS011;3745;56.964;24.128;2023-07-09T03:03:56;8.13;;;7.32;;
7406;SDS011;3745;56.964;24.128;2023-07-09T03:06:25;7.97;;;7.18;;
7406;SDS011;3745;56.964;24.128;2023-07-09T03:08:51;7.78;;;7.07;;
7406;SDS011;3745;56.964;24.128;2023-07-09T03:11:17;7.63;;;6.85;;
7406;SDS011;3745;56.964;24.128;2023-07-09T03:13:44;9.75;;;7.07;;
7406;SDS011;3745;56.964;24.128;2023-07-09T03:16:10;7.43;;;6.63;;
7406;SDS011;3745;56.964;24.128;2023-07-09T03:18:36;8.15;;;6.68;;
7406;SDS011;3745;56.964;24.128;2023-07-09T03:21:01;7.25;;;6.63;;
7406;SDS011;3745;56.964;24.128;2023-07-09T03:23:27;7.43;;;6.72;;
7406;SDS011;3745;56.964;24.128;2023-07-09T03:25:54;12.75;;;6.68;;
7406;SDS011;3745;56.964;24.128;2023-07-09T03:28:20;8.70;;;6.63;;
7406;SDS011;3745;56.964;24.128;2023-07-09T03:30:46;8.07;;;7.28;;
7406;SDS011;3745;56.964;24.128;2023-07-09T03:33:13;7.68;;;6.88;;
7406;SDS011;3745;56.964;24.128;2023-07-09T03:35:40;8.82;;;6.65;;
7406;SDS011;3745;56.964;24.128;2023-07-09T03:38:07;7.53;;;6.80;;
7406;SDS011;3745;56.964;24.128;2023-07-09T03:40:35;7.55;;;6.55;;
7406;SDS011;3745;56.964;24.128;2023-07-09T03:43:02;7.32;;;6.70;;
7406;SDS011;3745;56.964;24.128;2023-07-09T03:45:32;9.07;;;7.03;;
7406;SDS011;3745;56.964;24.128;2023-07-09T03:48:00;7.70;;;6.57;;
7406;SDS011;3745;56.964;24.128;2023-07-09T03:50:26;7.53;;;6.82;;
7406;SDS011;3745;56.964;24.128;2023-07-09T03:52:52;7.28;;;6.68;;
7406;SDS011;3745;56.964;24.128;2023-07-09T03:55:18;7.45;;;6.63;;
7406;SDS011;3745;56.964;24.128;2023-07-09T03:57:43;7.65;;;6.82;;
7406;SDS011;3745;56.964;24.128;2023-07-09T04:00:09;7.15;;;6.45;;
7406;SDS011;3745;56.964;24.128;2023-07-09T04:02:36;7.95;;;7.20;;
7406;SDS011;3745;56.964;24.128;2023-07-09T04:05:04;8.27;;;6.95;;
7406;SDS011;3745;56.964;24.128;2023-07-09T04:07:30;6.72;;;6.18;;
7406;SDS011;3745;56.964;24.128;2023-07-09T04:09:55;6.80;;;6.22;;
7406;SDS011;3745;56.964;24.128;2023-07-09T04:12:21;10.38;;;6.57;;
7406;SDS011;3745;56.964;24.128;2023-07-09T04:14:46;7.10;;;6.32;;
7406;SDS011;3745;56.964;24.128;2023-07-09T04:17:12;9.13;;;6.60;;
7406;SDS011;3745;56.964;24.128;2023-07-09T04:19:38;10.05;;;7.15;;
7406;SDS011;3745;56.964;24.128;2023-07-09T04:22:04;7.00;;;6.32;;
7406;SDS011;3745;56.964;24.128;2023-07-09T04:24:30;7.43;;;6.72;;
7406;SDS011;3745;56.964;24.128;2023-07-09T04:26:56;7.88;;;7.07;;
7406;SDS011;3745;56.964;24.128;2023-07-09T04:29:22;8.63;;;6.93;;
7406;SDS011;3745;56.964;24.128;2023-07-09T04:31:48;7.10;;;6.45;;
7406;SDS011;3745;56.964;24.128;2023-07-09T04:34:14;7.38;;;6.65;;
7406;SDS011;3745;56.964;24.128;2023-07-09T04:36:40;9.63;;;6.57;;
7406;SDS011;3745;56.964;24.128;2023-07-09T04:39:05;6.80;;;6.30;;
7406;SDS011;3745;56.964;24.128;2023-07-09T04:41:31;7.10;;;6.50;;
7406;SDS011;3745;56.964;24.128;2023-07-09T04:43:58;6.10;;;5.57;;
7406;SDS011;3745;56.964;24.128;2023-07-09T04:46:24;7.25;;;6.63;;
7406;SDS011;3745;56.964;24.128;2023-07-09T04:48:50;7.28;;;6.57;;
7406;SDS011;3745;56.964;24.128;2023-07-09T04:51:15;7.45;;;6.72;;
7406;SDS011;3745;56.964;24.128;2023-07-09T04:53:42;7.22;;;6.53;;
7406;SDS011;3745;56.964;24.128;2023-07-09T04:56:07;7.03;;;6.38;;
7406;SDS011;3745;56.964;24.128;2023-07-09T04:58:34;7.13;;;6.20;;
7406;SDS011;3745;56.964;24.128;2023-07-09T05:01:00;6.57;;;6.07;;
7406;SDS011;3745;56.964;24.128;2023-07-09T05:03:26;6.57;;;5.97;;
7406;SDS011;3745;56.964;24.128;2023-07-09T05:05:52;6.50;;;5.90;;
7406;SDS011;3745;56.964;24.128;2023-07-09T05:08:18;6.35;;;5.85;;
7406;SDS011;3745;56.964;24.128;2023-07-09T05:10:48;7.22;;;6.63;;
7406;SDS011;3745;56.964;24.128;2023-07-09T05:13:15;6.93;;;6.35;;
7406;SDS011;3745;56.964;24.128;2023-07-09T05:15:42;7.65;;;6.93;;
7406;SDS011;3745;56.964;24.128;2023-07-09T05:18:14;6.75;;;6.03;;
7406;SDS011;3745;56.964;24.128;2023-07-09T05:20:40;6.95;;;6.18;;
7406;SDS011;3745;56.964;24.128;2023-07-09T05:23:07;6.43;;;5.93;;
7406;SDS011;3745;56.964;24.128;2023-07-09T05:25:34;6.95;;;5.95;;
7406;SDS011;3745;56.964;24.128;2023-07-09T05:28:00;6.80;;;6.30;;
7406;SDS011;3745;56.964;24.128;2023-07-09T05:30:26;9.50;;;5.90;;
7406;SDS011;3745;56.964;24.128;2023-07-09T05:32:52;7.80;;;6.30;;
7406;SDS011;3745;56.964;24.128;2023-07-09T05:35:21;6.60;;;6.00;;
7406;SDS011;3745;56.964;24.128;2023-07-09T05:37:46;6.30;;;5.90;;
7406;SDS011;3745;56.964;24.128;2023-07-09T05:40:12;6.30;;;5.90;;
7406;SDS011;3745;56.964;24.128;2023-07-09T05:42:38;6.20;;;5.75;;
7406;SDS011;3745;56.964;24.128;2023-07-09T05:45:04;7.30;;;5.78;;
7406;SDS011;3745;56.964;24.128;2023-07-09T05:47:30;5.90;;;5.43;;
7406;SDS011;3745;56.964;24.128;2023-07-09T05:49:56;6.30;;;5.70;;
7406;SDS011;3745;56.964;24.128;2023-07-09T05:52:22;6.72;;;5.60;;
7406;SDS011;3745;56.964;24.128;2023-07-09T05:54:50;5.50;;;5.10;;
7406;SDS011;3745;56.964;24.128;2023-07-09T05:57:16;6.32;;;5.40;;
7406;SDS011;3745;56.964;24.128;2023-07-09T05:59:42;6.40;;;5.25;;
7406;SDS011;3745;56.964;24.128;2023-07-09T06:02:11;5.78;;;5.30;;
7406;SDS011;3745;56.964;24.128;2023-07-09T06:04:39;5.57;;;5.10;;
7406;SDS011;3745;56.964;24.128;2023-07-09T06:07:05;6.00;;;5.50;;
7406;SDS011;3745;56.964;24.128;2023-07-09T06:09:30;5.45;;;5.10;;
7406;SDS011;3745;56.964;24.128;2023-07-09T06:11:56;7.63;;;5.40;;
7406;SDS011;3745;56.964;24.128;2023-07-09T06:14:23;5.18;;;4.82;;
7406;SDS011;3745;56.964;24.128;2023-07-09T06:16:50;5.35;;;4.95;;
7406;SDS011;3745;56.964;24.128;2023-07-09T06:19:16;6.18;;;5.05;;
7406;SDS011;3745;56.964;24.128;2023-07-09T06:21:41;4.97;;;4.43;;
7406;SDS011;3745;56.964;24.128;2023-07-09T06:24:07;5.55;;;5.15;;
7406;SDS011;3745;56.964;24.128;2023-07-09T06:26:33;5.65;;;5.25;;
7406;SDS011;3745;56.964;24.128;2023-07-09T06:28:59;4.90;;;4.60;;
7406;SDS011;3745;56.964;24.128;2023-07-09T06:31:25;5.47;;;4.97;;
7406;SDS011;3745;56.964;24.128;2023-07-09T06:33:51;5.00;;;4.70;;
7406;SDS011;3745;56.964;24.128;2023-07-09T06:36:16;5.38;;;4.90;;
7406;SDS011;3745;56.964;24.128;2023-07-09T06:38:43;4.60;;;4.35;;
7406;SDS011;3745;56.964;24.128;2023-07-09T06:41:10;4.95;;;4.65;;
7406;SDS011;3745;56.964;24.128;2023-07-09T06:43:36;4.70;;;4.40;;
7406;SDS011;3745;56.964;24.128;2023-07-09T06:46:05;5.43;;;4.95;;
7406;SDS011;3745;56.964;24.128;2023-07-09T06:48:32;4.85;;;4.47;;
7406;SDS011;3745;56.964;24.128;2023-07-09T06:50:58;4.45;;;4.03;;
7406;SDS011;3745;56.964;24.128;2023-07-09T06:53:25;4.60;;;4.22;;
7406;SDS011;3745;56.964;24.128;2023-07-09T06:55:52;4.45;;;4.13;;
7406;SDS011;3745;56.964;24.128;2023-07-09T06:58:20;5.40;;;4.88;;
7406;SDS011;3745;56.964;24.128;2023-07-09T07:00:50;5.00;;;4.35;;
7406;SDS011;3745;56.964;24.128;2023-07-09T07:03:17;5.25;;;4.75;;
7406;SDS011;3745;56.964;24.128;2023-07-09T07:05:46;4.65;;;4.35;;
7406;SDS011;3745;56.964;24.128;2023-07-09T07:08:15;5.13;;;4.63;;
7406;SDS011;3745;56.964;24.128;2023-07-09T07:10:43;4.65;;;4.25;;
7406;SDS011;3745;56.964;24.128;2023-07-09T07:13:11;6.38;;;5.03;;
7406;SDS011;3745;56.964;24.128;2023-07-09T07:15:37;5.35;;;4.85;;
7406;SDS011;3745;56.964;24.128;2023-07-09T07:18:03;4.70;;;4.40;;
7406;SDS011;3745;56.964;24.128;2023-07-09T07:20:30;4.55;;;4.25;;
7406;SDS011;3745;56.964;24.128;2023-07-09T07:22:56;5.20;;;4.82;;
7406;SDS011;3745;56.964;24.128;2023-07-09T07:25:23;5.72;;;4.78;;
7406;SDS011;3745;56.964;24.128;2023-07-09T07:27:49;5.53;;;5.00;;
7406;SDS011;3745;56.964;24.128;2023-07-09T07:30:15;4.57;;;4.28;;
7406;SDS011;3745;56.964;24.128;2023-07-09T07:32:42;4.28;;;4.03;;
7406;SDS011;3745;56.964;24.128;2023-07-09T07:35:10;5.80;;;4.40;;
7406;SDS011;3745;56.964;24.128;2023-07-09T07:37:36;4.28;;;4.07;;
7406;SDS011;3745;56.964;24.128;2023-07-09T07:40:02;6.15;;;4.30;;
7406;SDS011;3745;56.964;24.128;2023-07-09T07:42:29;4.30;;;4.00;;
7406;SDS011;3745;56.964;24.128;2023-07-09T07:44:55;4.20;;;3.78;;
7406;SDS011;3745;56.964;24.128;2023-07-09T07:47:21;4.55;;;4.15;;
7406;SDS011;3745;56.964;24.128;2023-07-09T07:49:46;4.82;;;4.53;;
7406;SDS011;3745;56.964;24.128;2023-07-09T07:52:12;4.88;;;4.03;;
7406;SDS011;3745;56.964;24.128;2023-07-09T07:54:38;4.32;;;4.03;;
7406;SDS011;3745;56.964;24.128;2023-07-09T07:57:04;4.10;;;3.90;;
7406;SDS011;3745;56.964;24.128;2023-07-09T07:59:30;4.53;;;4.13;;
7406;SDS011;3745;56.964;24.128;2023-07-09T08:01:57;4.28;;;3.97;;
7406;SDS011;3745;56.964;24.128;2023-07-09T08:04:23;4.13;;;3.92;;
7406;SDS011;3745;56.964;24.128;2023-07-09T08:06:49;4.20;;;3.80;;
7406;SDS011;3745;56.964;24.128;2023-07-09T08:09:15;3.90;;;3.75;;
7406;SDS011;3745;56.964;24.128;2023-07-09T08:11:41;3.95;;;3.65;;
7406;SDS011;3745;56.964;24.128;2023-07-09T08:14:07;5.10;;;3.72;;
7406;SDS011;3745;56.964;24.128;2023-07-09T08:16:32;3.80;;;3.60;;
7406;SDS011;3745;56.964;24.128;2023-07-09T08:18:58;4.57;;;3.80;;
7406;SDS011;3745;56.964;24.128;2023-07-09T08:21:24;3.70;;;3.47;;
7406;SDS011;3745;56.964;24.128;2023-07-09T08:23:53;3.92;;;3.55;;
7406;SDS011;3745;56.964;24.128;2023-07-09T08:26:19;3.40;;;3.30;;
7406;SDS011;3745;56.964;24.128;2023-07-09T08:28:44;3.97;;;3.78;;
7406;SDS011;3745;56.964;24.128;2023-07-09T08:31:10;3.92;;;3.63;;
7406;SDS011;3745;56.964;24.128;2023-07-09T08:33:36;4.05;;;3.80;;
7406;SDS011;3745;56.964;24.128;2023-07-09T08:36:02;3.90;;;3.67;;
7406;SDS011;3745;56.964;24.128;2023-07-09T08:38:28;4.05;;;3.85;;
7406;SDS011;3745;56.964;24.128;2023-07-09T08:41:32;3.38;;;3.17;;
7406;SDS011;3745;56.964;24.128;2023-07-09T08:46:58;3.47;;;3.33;;
7406;SDS011;3745;56.964;24.128;2023-07-09T08:49:38;3.47;;;3.28;;
7406;SDS011;3745;56.964;24.128;2023-07-09T08:57:41;3.67;;;3.47;;
7406;SDS011;3745;56.964;24.128;2023-07-09T09:00:13;3.58;;;3.28;;
7406;SDS011;3745;56.964;24.128;2023-07-09T09:05:31;3.35;;;3.25;;
7406;SDS011;3745;56.964;24.128;2023-07-09T09:08:02;3.30;;;3.20;;
7406;SDS011;3745;56.964;24.128;2023-07-09T09:10:39;3.33;;;3.13;;
7406;SDS011;3745;56.964;24.128;2023-07-09T09:13:18;3.42;;;3.22;;
7406;SDS011;3745;56.964;24.128;2023-07-09T09:15:47;3.55;;;3.35;;
7406;SDS011;3745;56.964;24.128;2023-07-09T09:18:17;3.10;;;3.00;;
7406;SDS011;3745;56.964;24.128;2023-07-09T09:20:47;3.00;;;2.90;;
7406;SDS011;3745;56.964;24.128;2023-07-09T09:23:18;3.50;;;3.30;;
7406;SDS011;3745;56.964;24.128;2023-07-09T09:25:46;3.70;;;3.42;;
7406;SDS011;3745;56.964;24.128;2023-07-09T09:28:17;3.72;;;3.42;;
7406;SDS011;3745;56.964;24.128;2023-07-09T09:30:43;3.05;;;2.92;;
7406;SDS011;3745;56.964;24.128;2023-07-09T09:33:10;3.50;;;3.30;;
7406;SDS011;3745;56.964;24.128;2023-07-09T09:35:40;5.00;;;4.70;;
7406;SDS011;3745;56.964;24.128;2023-07-09T09:38:10;6.40;;;5.93;;
7406;SDS011;3745;56.964;24.128;2023-07-09T09:40:37;8.75;;;7.97;;
7406;SDS011;3745;56.964;24.128;2023-07-09T09:43:09;10.00;;;9.00;;
7406;SDS011;3745;56.964;24.128;2023-07-09T09:45:39;9.35;;;8.45;;
7406;SDS011;3745;56.964;24.128;2023-07-09T09:48:10;10.00;;;7.78;;
7406;SDS011;3745;56.964;24.128;2023-07-09T09:50:42;8.30;;;7.60;;
7406;SDS011;3745;56.964;24.128;2023-07-09T09:53:08;7.93;;;7.32;;
7406;SDS011;3745;56.964;24.128;2023-07-09T09:55:41;8.48;;;7.75;;
7406;SDS011;3745;56.964;24.128;2023-07-09T09:58:13;8.82;;;8.10;;
7406;SDS011;3745;56.964;24.128;2023-07-09T10:00:46;8.05;;;6.45;;
7406;SDS011;3745;56.964;24.128;2023-07-09T10:03:13;6.90;;;6.40;;
7406;SDS011;3745;56.964;24.128;2023-07-09T10:05:43;6.70;;;6.20;;
7406;SDS011;3745;56.964;24.128;2023-07-09T10:11:31;4.20;;;3.90;;
7406;SDS011;3745;56.964;24.128;2023-07-09T10:14:13;3.20;;;3.10;;
7406;SDS011;3745;56.964;24.128;2023-07-09T10:17:27;3.17;;;2.83;;
7406;SDS011;3745;56.964;24.128;2023-07-09T10:19:57;4.95;;;4.55;;
7406;SDS011;3745;56.964;24.128;2023-07-09T10:22:43;3.35;;;3.15;;
7406;SDS011;3745;56.964;24.128;2023-07-09T10:32:10;2.45;;;1.92;;
7406;SDS011;3745;56.964;24.128;2023-07-09T10:40:14;3.33;;;2.42;;
7406;SDS011;3745;56.964;24.128;2023-07-09T10:42:50;2.60;;;2.50;;
7406;SDS011;3745;56.964;24.128;2023-07-09T10:45:28;2.40;;;2.30;;
7406;SDS011;3745;56.964;24.128;2023-07-09T10:48:20;2.85;;;2.75;;
7406;SDS011;3745;56.964;24.128;2023-07-09T10:50:56;2.58;;;2.47;;
7406;SDS011;3745;56.964;24.128;2023-07-09T10:53:29;2.83;;;2.58;;
7406;SDS011;3745;56.964;24.128;2023-07-09T10:56:14;3.33;;;3.00;;
7406;SDS011;3745;56.964;24.128;2023-07-09T11:01:53;2.85;;;2.63;;
7406;SDS011;3745;56.964;24.128;2023-07-09T11:06:57;2.67;;;2.58;;
7406;SDS011;3745;56.964;24.128;2023-07-09T11:09:30;3.42;;;2.92;;
7406;SDS011;3745;56.964;24.128;2023-07-09T11:11:58;2.55;;;2.45;;
7406;SDS011;3745;56.964;24.128;2023-07-09T11:14:39;2.90;;;2.70;;
7406;SDS011;3745;56.964;24.128;2023-07-09T11:17:18;2.80;;;2.60;;
7406;SDS011;3745;56.964;24.128;2023-07-09T11:19:46;2.80;;;2.45;;
7406;SDS011;3745;56.964;24.128;2023-07-09T11:24:47;4.13;;;2.75;;
7406;SDS011;3745;56.964;24.128;2023-07-09T11:27:17;2.35;;;2.25;;
7406;SDS011;3745;56.964;24.128;2023-07-09T11:29:48;2.20;;;2.10;;
7406;SDS011;3745;56.964;24.128;2023-07-09T11:32:22;1.90;;;1.90;;
7406;SDS011;3745;56.964;24.128;2023-07-09T11:34:48;1.98;;;1.88;;
7406;SDS011;3745;56.964;24.128;2023-07-09T11:37:14;2.10;;;2.00;;
7406;SDS011;3745;56.964;24.128;2023-07-09T11:45:11;1.90;;;1.85;;
7406;SDS011;3745;56.964;24.128;2023-07-09T11:47:43;2.50;;;2.30;;
7406;SDS011;3745;56.964;24.128;2023-07-09T11:53:02;1.77;;;1.70;;
7406;SDS011;3745;56.964;24.128;2023-07-09T11:55:38;3.33;;;2.20;;
7406;SDS011;3745;56.964;24.128;2023-07-09T11:58:08;1.90;;;1.90;;
7406;SDS011;3745;56.964;24.128;2023-07-09T12:00:49;2.83;;;1.80;;
7406;SDS011;3745;56.964;24.128;2023-07-09T12:03:34;2.00;;;1.90;;
7406;SDS011;3745;56.964;24.128;2023-07-09T12:06:04;3.83;;;1.88;;
7406;SDS011;3745;56.964;24.128;2023-07-09T12:08:42;1.60;;;1.60;;
7406;SDS011;3745;56.964;24.128;2023-07-09T12:11:27;1.77;;;1.67;;
7406;SDS011;3745;56.964;24.128;2023-07-09T12:14:04;2.00;;;1.90;;
7406;SDS011;3745;56.964;24.128;2023-07-09T12:16:38;2.00;;;1.90;;
7406;SDS011;3745;56.964;24.128;2023-07-09T12:19:14;2.65;;;2.00;;
7406;SDS011;3745;56.964;24.128;2023-07-09T12:21:43;1.90;;;1.83;;
7406;SDS011;3745;56.964;24.128;2023-07-09T12:24:15;2.08;;;1.98;;
7406;SDS011;3745;56.964;24.128;2023-07-09T12:27:00;2.10;;;2.00;;
7406;SDS011;3745;56.964;24.128;2023-07-09T12:29:29;1.73;;;1.70;;
7406;SDS011;3745;56.964;24.128;2023-07-09T12:32:02;1.92;;;1.55;;
7406;SDS011;3745;56.964;24.128;2023-07-09T12:34:35;2.10;;;2.00;;
7406;SDS011;3745;56.964;24.128;2023-07-09T12:37:01;1.95;;;1.80;;
7406;SDS011;3745;56.964;24.128;2023-07-09T12:39:27;2.40;;;2.03;;
7406;SDS011;3745;56.964;24.128;2023-07-09T12:41:58;1.95;;;1.85;;
7406;SDS011;3745;56.964;24.128;2023-07-09T12:44:26;3.20;;;2.22;;
7406;SDS011;3745;56.964;24.128;2023-07-09T12:46:56;3.10;;;2.10;;
7406;SDS011;3745;56.964;24.128;2023-07-09T12:51:49;2.13;;;2.03;;
7406;SDS011;3745;56.964;24.128;2023-07-09T12:54:18;2.60;;;2.40;;
7406;SDS011;3745;56.964;24.128;2023-07-09T12:56:46;1.90;;;1.80;;
7406;SDS011;3745;56.964;24.128;2023-07-09T13:04:33;3.33;;;2.30;;
7406;SDS011;3745;56.964;24.128;2023-07-09T13:07:03;2.75;;;2.13;;
7406;SDS011;3745;56.964;24.128;2023-07-09T13:09:29;2.28;;;2.00;;
7406;SDS011;3745;56.964;24.128;2023-07-09T13:11:55;2.17;;;2.10;;
7406;SDS011;3745;56.964;24.128;2023-07-09T13:14:41;2.88;;;2.20;;
7406;SDS011;3745;56.964;24.128;2023-07-09T13:17:07;2.05;;;2.05;;
7406;SDS011;3745;56.964;24.128;2023-07-09T13:19:36;2.58;;;2.38;;
7406;SDS011;3745;56.964;24.128;2023-07-09T13:22:04;2.30;;;2.17;;
7406;SDS011;3745;56.964;24.128;2023-07-09T13:24:30;2.35;;;2.15;;
7406;SDS011;3745;56.964;24.128;2023-07-09T13:27:00;2.38;;;2.28;;
7406;SDS011;3745;56.964;24.128;2023-07-09T13:29:26;2.35;;;2.20;;
7406;SDS011;3745;56.964;24.128;2023-07-09T13:31:53;3.28;;;2.40;;
7406;SDS011;3745;56.964;24.128;2023-07-09T13:34:21;2.40;;;1.92;;
7406;SDS011;3745;56.964;24.128;2023-07-09T13:36:48;2.30;;;2.20;;
7406;SDS011;3745;56.964;24.128;2023-07-09T13:39:14;2.30;;;2.20;;
7406;SDS011;3745;56.964;24.128;2023-07-09T13:41:44;2.03;;;1.90;;
7406;SDS011;3745;56.964;24.128;2023-07-09T13:44:12;3.53;;;2.20;;
7406;SDS011;3745;56.964;24.128;2023-07-09T13:46:45;3.08;;;2.08;;
7406;SDS011;3745;56.964;24.128;2023-07-09T13:49:15;2.05;;;1.95;;
7406;SDS011;3745;56.964;24.128;2023-07-09T13:51:43;2.08;;;1.90;;
7406;SDS011;3745;56.964;24.128;2023-07-09T13:54:14;4.88;;;2.00;;
7406;SDS011;3745;56.964;24.128;2023-07-09T13:56:39;2.22;;;2.13;;
7406;SDS011;3745;56.964;24.128;2023-07-09T13:59:11;2.63;;;2.15;;
7406;SDS011;3745;56.964;24.128;2023-07-09T14:01:49;2.45;;;2.00;;
7406;SDS011;3745;56.964;24.128;2023-07-09T14:04:17;2.15;;;2.05;;
7406;SDS011;3745;56.964;24.128;2023-07-09T14:06:44;2.10;;;2.00;;
7406;SDS011;3745;56.964;24.128;2023-07-09T14:09:11;2.30;;;2.10;;
7406;SDS011;3745;56.964;24.128;2023-07-09T14:11:40;1.95;;;1.85;;
7406;SDS011;3745;56.964;24.128;2023-07-09T14:14:32;2.13;;;1.92;;
7406;SDS011;3745;56.964;24.128;2023-07-09T14:16:58;1.70;;;1.60;;
7406;SDS011;3745;56.964;24.128;2023-07-09T14:19:24;2.00;;;1.90;;
7406;SDS011;3745;56.964;24.128;2023-07-09T14:21:51;3.65;;;1.92;;
7406;SDS011;3745;56.964;24.128;2023-07-09T14:26:53;2.05;;;1.90;;
7406;SDS011;3745;56.964;24.128;2023-07-09T14:29:21;1.77;;;1.75;;
7406;SDS011;3745;56.964;24.128;2023-07-09T14:31:47;1.80;;;1.70;;
7406;SDS011;3745;56.964;24.128;2023-07-09T14:34:20;1.80;;;1.70;;
7406;SDS011;3745;56.964;24.128;2023-07-09T14:36:48;2.38;;;2.03;;
7406;SDS011;3745;56.964;24.128;2023-07-09T14:39:15;3.97;;;2.35;;
7406;SDS011;3745;56.964;24.128;2023-07-09T14:41:41;2.75;;;2.20;;
7406;SDS011;3745;56.964;24.128;2023-07-09T14:44:27;2.15;;;2.00;;
7406;SDS011;3745;56.964;24.128;2023-07-09T14:46:55;2.30;;;2.15;;
7406;SDS011;3745;56.964;24.128;2023-07-09T14:49:22;3.10;;;2.10;;
7406;SDS011;3745;56.964;24.128;2023-07-09T14:51:49;1.88;;;1.77;;
7406;SDS011;3745;56.964;24.128;2023-07-09T14:54:23;1.95;;;1.85;;
7406;SDS011;3745;56.964;24.128;2023-07-09T14:56:52;2.78;;;2.67;;
7406;SDS011;3745;56.964;24.128;2023-07-09T14:59:19;2.83;;;2.55;;
7406;SDS011;3745;56.964;24.128;2023-07-09T15:01:45;2.33;;;2.20;;
7406;SDS011;3745;56.964;24.128;2023-07-09T15:04:45;2.22;;;2.13;;
7406;SDS011;3745;56.964;24.128;2023-07-09T15:07:04;2.92;;;2.80;;
7406;SDS011;3745;56.964;24.128;2023-07-09T15:09:35;4.65;;;4.22;;
7406;SDS011;3745;56.964;24.128;2023-07-09T15:12:03;6.47;;;5.88;;
7406;SDS011;3745;56.964;24.128;2023-07-09T15:14:29;6.90;;;6.30;;
7406;SDS011;3745;56.964;24.128;2023-07-09T15:16:55;6.35;;;5.80;;
7406;SDS011;3745;56.964;24.128;2023-07-09T15:19:22;8.63;;;5.60;;
7406;SDS011;3745;56.964;24.128;2023-07-09T15:21:48;6.18;;;5.60;;
7406;SDS011;3745;56.964;24.128;2023-07-09T15:24:22;5.88;;;4.75;;
7406;SDS011;3745;56.964;24.128;2023-07-09T15:26:54;4.80;;;4.22;;
7406;SDS011;3745;56.964;24.128;2023-07-09T15:29:21;5.68;;;5.20;;
7406;SDS011;3745;56.964;24.128;2023-07-09T15:31:47;6.90;;;6.22;;
7406;SDS011;3745;56.964;24.128;2023-07-09T15:34:13;7.78;;;6.55;;
7406;SDS011;3745;56.964;24.128;2023-07-09T15:36:43;6.40;;;5.80;;
7406;SDS011;3745;56.964;24.128;2023-07-09T15:39:13;5.50;;;4.70;;
7406;SDS011;3745;56.964;24.128;2023-07-09T15:41:39;4.70;;;4.47;;
7406;SDS011;3745;56.964;24.128;2023-07-09T15:44:08;6.65;;;4.82;;
7406;SDS011;3745;56.964;24.128;2023-07-09T15:46:36;5.45;;;5.00;;
7406;SDS011;3745;56.964;24.128;2023-07-09T15:49:02;5.47;;;5.05;;
7406;SDS011;3745;56.964;24.128;2023-07-09T15:51:29;6.50;;;6.00;;
7406;SDS011;3745;56.964;24.128;2023-07-09T15:53:56;6.35;;;5.80;;
7406;SDS011;3745;56.964;24.128;2023-07-09T15:56:23;6.85;;;6.25;;
7406;SDS011;3745;56.964;24.128;2023-07-09T15:58:51;7.43;;;6.32;;
7406;SDS011;3745;56.964;24.128;2023-07-09T16:01:18;5.60;;;5.10;;
7406;SDS011;3745;56.964;24.128;2023-07-09T16:03:51;5.88;;;4.30;;
7406;SDS011;3745;56.964;24.128;2023-07-09T16:06:19;4.38;;;4.05;;
7406;SDS011;3745;56.964;24.128;2023-07-09T16:08:45;4.03;;;3.72;;
7406;SDS011;3745;56.964;24.128;2023-07-09T16:11:18;4.03;;;3.38;;